createdAt,value
2022-12-25T00:00:06.251Z,22.30
2022-12-25T00:02:33.337Z,24.88
2022-12-25T00:05:00.374Z,20.63
2022-12-25T00:07:27.376Z,22.00
2022-12-25T00:09:54.340Z,20.50
2022-12-25T00:12:22.308Z,20.67
2022-12-25T00:14:49.441Z,22.77
2022-12-25T00:17:16.554Z,22.27
2022-12-25T00:19:43.506Z,21.92
2022-12-25T00:22:10.424Z,23.05
2022-12-25T00:24:37.472Z,23.83
2022-12-25T00:27:04.535Z,23.15
2022-12-25T00:29:31.549Z,24.58
2022-12-25T00:31:58.545Z,22.70
2022-12-25T00:34:25.600Z,21.60
2022-12-25T00:36:52.831Z,22.42
2022-12-25T00:39:19.891Z,22.83
2022-12-25T00:42:05.777Z,22.63
2022-12-25T00:44:32.933Z,22.25
2022-12-25T00:47:00.032Z,21.55
2022-12-25T00:49:27.086Z,23.05
2022-12-25T00:51:54.093Z,21.63
2022-12-25T00:54:21.728Z,23.20
2022-12-25T00:56:48.944Z,23.33
2022-12-25T00:59:16.251Z,24.98
2022-12-25T01:01:43.394Z,26.38
2022-12-25T01:04:12.345Z,26.13
2022-12-25T01:06:40.140Z,26.30
2022-12-25T01:09:26.387Z,26.08
2022-12-25T01:11:53.456Z,26.15
2022-12-25T01:14:20.449Z,25.73
2022-12-25T01:29:30.747Z,34.47
2022-12-25T01:31:57.709Z,30.60
2022-12-25T01:34:24.737Z,29.95
2022-12-25T01:36:51.672Z,27.75
2022-12-25T01:39:18.931Z,29.13
2022-12-25T01:41:45.916Z,31.98
2022-12-25T01:44:15.903Z,34.20
2022-12-25T01:46:44.200Z,33.63
2022-12-25T01:49:21.967Z,42.20
2022-12-25T01:52:01.641Z,35.78
2022-12-25T01:54:39.575Z,36.15
2022-12-25T01:57:16.658Z,34.83
2022-12-25T01:59:44.192Z,33.78
2022-12-25T02:02:12.274Z,32.22
2022-12-25T02:04:49.025Z,31.95
2022-12-25T02:07:23.184Z,35.35
2022-12-25T02:09:51.350Z,36.55
2022-12-25T02:12:29.191Z,38.33
2022-12-25T02:15:05.733Z,38.40
2022-12-25T02:17:54.103Z,35.55
2022-12-25T02:21:03.092Z,39.05
2022-12-25T02:23:49.059Z,35.60
2022-12-25T02:26:35.889Z,41.20
2022-12-25T02:29:45.815Z,47.30
2022-12-25T02:32:32.700Z,39.97
2022-12-25T02:35:28.459Z,37.63
2022-12-25T02:38:24.737Z,33.47
2022-12-25T02:40:59.215Z,32.80
2022-12-25T02:43:55.419Z,34.05
2022-12-25T02:46:43.367Z,30.35
2022-12-25T02:49:42.988Z,31.50
2022-12-25T02:52:38.644Z,30.92
2022-12-25T02:55:39.875Z,31.73
2022-12-25T02:58:33.507Z,31.75
2022-12-25T03:01:26.127Z,30.00
2022-12-25T03:04:18.232Z,30.52
2022-12-25T03:07:01.687Z,32.45
2022-12-25T03:09:57.344Z,29.20
2022-12-25T03:12:53.754Z,29.90
2022-12-25T03:15:39.838Z,30.55
2022-12-25T03:18:15.416Z,30.13
2022-12-25T03:21:01.020Z,29.55
2022-12-25T03:23:54.187Z,29.20
2022-12-25T03:26:39.598Z,30.30
2022-12-25T03:29:06.694Z,32.80
2022-12-25T03:32:00.397Z,32.30
2022-12-25T03:35:13.031Z,32.20
2022-12-25T03:38:25.849Z,31.17
2022-12-25T03:41:35.214Z,30.05
2022-12-25T03:44:55.777Z,29.33
2022-12-25T03:48:04.529Z,31.73
2022-12-25T03:51:01.801Z,30.52
2022-12-25T03:54:04.022Z,27.90
2022-12-25T03:56:51.602Z,30.42
2022-12-25T03:59:42.759Z,30.75
2022-12-25T04:02:28.964Z,30.98
2022-12-25T04:05:14.306Z,31.77
2022-12-25T04:08:00.372Z,31.65
2022-12-25T04:10:45.879Z,28.58
2022-12-25T04:13:31.416Z,29.48
2022-12-25T04:16:16.839Z,30.52
2022-12-25T04:19:02.871Z,32.75
2022-12-25T04:21:48.348Z,36.60
2022-12-25T04:24:33.697Z,32.45
2022-12-25T04:27:19.319Z,32.22
2022-12-25T04:30:04.895Z,33.63
2022-12-25T04:32:50.394Z,32.53
2022-12-25T04:35:35.997Z,30.80
2022-12-25T04:38:02.933Z,31.88
2022-12-25T04:40:29.929Z,31.38
2022-12-25T04:42:56.841Z,33.22
2022-12-25T04:45:23.794Z,33.67
2022-12-25T04:47:50.749Z,34.28
2022-12-25T04:50:17.778Z,33.28
2022-12-25T04:52:44.855Z,35.03
2022-12-25T04:55:14.351Z,37.22
2022-12-25T04:57:41.317Z,34.17
2022-12-25T05:00:09.110Z,34.75
2022-12-25T05:02:36.237Z,33.03
2022-12-25T05:05:03.466Z,34.47
2022-12-25T05:07:30.393Z,40.63
2022-12-25T05:09:58.202Z,38.55
2022-12-25T05:12:25.145Z,35.72
2022-12-25T05:14:52.069Z,34.53
2022-12-25T05:17:18.995Z,35.30
2022-12-25T05:19:45.920Z,34.80
2022-12-25T05:22:12.926Z,34.05
2022-12-25T05:24:39.883Z,35.25
2022-12-25T05:27:06.878Z,37.38
2022-12-25T05:29:33.794Z,38.85
2022-12-25T05:32:00.925Z,34.03
2022-12-25T05:34:27.829Z,34.90
2022-12-25T05:36:56.441Z,35.75
2022-12-25T05:39:24.242Z,34.88
2022-12-25T05:41:51.311Z,34.60
2022-12-25T05:44:18.258Z,33.55
2022-12-25T05:46:45.352Z,33.72
2022-12-25T05:49:12.462Z,35.45
2022-12-25T05:51:39.580Z,31.67
2022-12-25T05:54:06.562Z,31.05
2022-12-25T05:56:33.572Z,34.22
2022-12-25T05:59:00.525Z,34.40
2022-12-25T06:01:29.039Z,36.40
2022-12-25T06:03:57.576Z,32.85
2022-12-25T06:06:24.586Z,32.00
2022-12-25T06:08:55.092Z,35.85
2022-12-25T06:11:22.209Z,35.95
2022-12-25T06:13:53.744Z,34.35
2022-12-25T06:16:21.433Z,36.28
2022-12-25T06:18:52.186Z,36.25
2022-12-25T06:21:19.624Z,36.33
2022-12-25T06:23:47.036Z,35.00
2022-12-25T06:26:18.485Z,38.10
2022-12-25T06:28:46.456Z,37.22
2022-12-25T06:31:19.045Z,37.13
2022-12-25T06:33:46.765Z,38.70
2022-12-25T06:36:18.212Z,38.88
2022-12-25T06:38:45.465Z,36.17
2022-12-25T06:41:25.094Z,39.97
2022-12-25T06:43:55.878Z,38.17
2022-12-25T06:46:25.326Z,37.85
2022-12-25T06:48:53.123Z,40.22
2022-12-25T06:51:27.207Z,39.97
2022-12-25T06:53:55.753Z,42.42
2022-12-25T06:56:27.116Z,39.22
2022-12-25T07:10:55.768Z,45.97
2022-12-25T07:13:22.718Z,42.42
2022-12-25T07:16:00.450Z,45.47
2022-12-25T07:18:28.836Z,43.15
2022-12-25T07:20:56.289Z,41.22
2022-12-25T07:23:23.781Z,45.95
2022-12-25T07:26:01.275Z,47.78
2022-12-25T07:28:29.956Z,48.47
2022-12-25T07:31:03.892Z,42.53
2022-12-25T07:33:31.676Z,39.05
2022-12-25T07:35:58.829Z,38.88
2022-12-25T07:38:26.195Z,38.90
2022-12-25T07:40:54.056Z,40.85
2022-12-25T07:43:21.109Z,41.00
2022-12-25T07:45:48.111Z,40.92
2022-12-25T07:48:16.945Z,42.42
2022-12-25T07:50:44.226Z,41.65
2022-12-25T07:53:11.261Z,40.50
2022-12-25T07:55:38.235Z,41.25
2022-12-25T07:58:07.022Z,39.55
2022-12-25T08:00:34.418Z,39.30
2022-12-25T08:03:01.695Z,45.33
2022-12-25T08:05:28.817Z,43.78
2022-12-25T08:07:57.968Z,41.22
2022-12-25T08:10:25.502Z,41.78
2022-12-25T08:12:56.290Z,45.75
2022-12-25T08:15:23.376Z,41.67
2022-12-25T08:17:50.413Z,43.15
2022-12-25T08:20:17.477Z,39.80
2022-12-25T08:22:44.410Z,42.13
2022-12-25T08:25:11.343Z,41.25
2022-12-25T08:27:38.252Z,39.55
2022-12-25T08:30:06.249Z,44.20
2022-12-25T08:32:33.746Z,42.45
2022-12-25T08:35:00.688Z,42.95
2022-12-25T08:37:30.366Z,44.95
2022-12-25T08:39:57.286Z,49.53
2022-12-25T08:42:24.485Z,56.03
2022-12-25T08:44:51.515Z,55.42
2022-12-25T08:47:18.520Z,53.05
2022-12-25T08:49:45.463Z,51.88
2022-12-25T08:52:12.737Z,48.10
2022-12-25T08:54:39.669Z,43.20
2022-12-25T08:57:06.663Z,40.05
2022-12-25T08:59:33.597Z,41.80
2022-12-25T09:02:00.700Z,42.03
2022-12-25T09:04:27.767Z,42.00
2022-12-25T09:06:54.867Z,43.38
2022-12-25T09:09:26.867Z,46.88
2022-12-25T09:11:54.191Z,46.43
2022-12-25T09:14:21.904Z,48.22
2022-12-25T09:16:51.213Z,46.85
2022-12-25T09:19:18.306Z,49.67
2022-12-25T09:21:45.619Z,45.63
2022-12-25T09:24:12.701Z,45.28
2022-12-25T09:26:39.946Z,40.50
2022-12-25T09:29:07.066Z,46.45
2022-12-25T09:31:34.393Z,45.08
2022-12-25T09:34:01.349Z,45.03
2022-12-25T09:36:28.326Z,43.95
2022-12-25T09:38:55.226Z,48.65
2022-12-25T09:41:43.255Z,48.45
2022-12-25T09:44:14.957Z,47.50
2022-12-25T09:46:53.490Z,52.00
2022-12-25T09:49:51.465Z,62.17
2022-12-25T09:52:40.616Z,86.28
2022-12-25T09:55:24.380Z,62.28
2022-12-25T09:57:58.774Z,50.60
2022-12-25T10:00:43.936Z,43.10
2022-12-25T10:03:31.685Z,45.10
2022-12-25T10:06:18.710Z,43.97
2022-12-25T10:09:13.726Z,42.80
2022-12-25T10:12:11.241Z,50.00
2022-12-25T10:15:20.158Z,60.88
2022-12-25T10:18:24.101Z,46.05
2022-12-25T10:20:58.750Z,47.15
2022-12-25T10:23:43.009Z,45.75
2022-12-25T10:26:20.989Z,46.63
2022-12-25T10:29:19.609Z,46.85
2022-12-25T10:31:50.080Z,44.60
2022-12-25T10:34:17.662Z,45.47
2022-12-25T10:36:46.919Z,47.75
2022-12-25T10:39:20.759Z,46.03
2022-12-25T10:42:42.457Z,54.45
2022-12-25T10:45:11.003Z,58.40
2022-12-25T10:47:42.754Z,54.10
2022-12-25T10:50:20.922Z,56.67
2022-12-25T10:53:16.957Z,70.68
2022-12-25T10:55:54.482Z,61.17
2022-12-25T10:58:21.648Z,49.55
2022-12-25T11:01:01.918Z,44.90
2022-12-25T11:03:36.004Z,43.83
2022-12-25T11:06:03.580Z,47.15
2022-12-25T11:08:34.790Z,47.50
2022-12-25T11:11:08.531Z,48.63
2022-12-25T11:13:47.668Z,50.88
2022-12-25T11:16:36.581Z,50.70
2022-12-25T11:19:22.897Z,50.25
2022-12-25T11:21:57.213Z,50.45
2022-12-25T11:24:32.516Z,51.20
2022-12-25T11:27:05.398Z,49.20
2022-12-25T11:29:50.697Z,49.78
2022-12-25T11:32:21.022Z,50.45
2022-12-25T11:34:50.912Z,50.80
2022-12-25T11:37:37.304Z,49.60
2022-12-25T11:40:06.867Z,52.25
2022-12-25T11:42:41.002Z,50.25
2022-12-25T11:45:28.121Z,49.05
2022-12-25T11:48:26.101Z,47.08
2022-12-25T11:51:02.520Z,50.53
2022-12-25T11:53:52.545Z,56.55
2022-12-25T11:56:25.081Z,51.40
2022-12-25T11:59:35.151Z,44.80
2022-12-25T12:02:11.453Z,44.13
2022-12-25T12:04:44.543Z,42.03
2022-12-25T12:07:30.151Z,43.13
2022-12-25T12:10:20.371Z,45.05
2022-12-25T12:13:11.702Z,50.58
2022-12-25T12:15:56.551Z,49.25
2022-12-25T12:18:27.219Z,46.60
2022-12-25T12:21:18.019Z,45.70
2022-12-25T12:24:13.698Z,53.15
2022-12-25T12:26:45.245Z,59.92
2022-12-25T12:29:30.066Z,64.45
2022-12-25T12:32:03.551Z,58.58
2022-12-25T12:34:43.714Z,66.85
2022-12-25T12:37:36.297Z,70.30
2022-12-25T12:40:06.746Z,65.03
2022-12-25T12:42:46.323Z,60.30
2022-12-25T12:45:37.612Z,56.15
2022-12-25T12:48:29.141Z,52.60
2022-12-25T12:51:05.899Z,48.17
2022-12-25T12:53:34.882Z,51.17
2022-12-25T12:56:14.838Z,49.75
2022-12-25T12:58:50.786Z,51.95
2022-12-25T13:01:26.610Z,54.10
2022-12-25T13:04:24.279Z,103.85
2022-12-25T13:07:32.329Z,63.53
2022-12-25T13:10:23.844Z,66.40
2022-12-25T13:13:00.668Z,57.08
2022-12-25T13:15:34.976Z,66.28
2022-12-25T13:18:13.907Z,72.28
2022-12-25T13:21:01.915Z,67.72
2022-12-25T13:23:32.690Z,62.88
2022-12-25T13:26:11.647Z,54.78
2022-12-25T13:28:38.894Z,54.33
2022-12-25T13:31:13.650Z,53.85
2022-12-25T13:34:36.566Z,71.72
2022-12-25T13:37:18.951Z,77.47
2022-12-25T13:40:05.027Z,93.45
2022-12-25T13:42:42.460Z,67.88
2022-12-25T13:45:29.787Z,61.90
2022-12-25T13:48:10.144Z,55.53
2022-12-25T13:50:37.749Z,63.25
2022-12-25T13:53:20.857Z,63.92
2022-12-25T13:55:58.523Z,58.30
2022-12-25T13:58:40.159Z,57.67
2022-12-25T14:01:07.603Z,73.55
2022-12-25T14:03:43.235Z,70.93
2022-12-25T14:06:25.007Z,64.93
2022-12-25T14:08:55.689Z,61.75
2022-12-25T14:11:26.982Z,55.65
2022-12-25T14:14:04.125Z,50.97
2022-12-25T14:16:33.943Z,52.03
2022-12-25T14:19:03.869Z,50.55
2022-12-25T14:21:45.053Z,52.50
2022-12-25T14:24:15.712Z,58.33
2022-12-25T14:26:43.647Z,57.47
2022-12-25T14:29:18.077Z,64.45
2022-12-25T14:31:47.553Z,69.32
2022-12-25T14:34:23.602Z,68.55
2022-12-25T14:36:53.166Z,57.97
2022-12-25T14:39:37.755Z,55.35
2022-12-25T14:53:21.916Z,53.60
2022-12-25T14:55:52.779Z,51.60
2022-12-25T14:58:31.251Z,47.78
2022-12-25T15:01:01.850Z,48.83
2022-12-25T15:03:37.311Z,49.83
2022-12-25T15:06:19.380Z,49.65
2022-12-25T15:09:02.740Z,49.35
2022-12-25T15:11:30.446Z,46.55
2022-12-25T15:13:58.405Z,50.85
2022-12-25T15:16:31.083Z,51.45
2022-12-25T15:19:00.536Z,52.47
2022-12-25T15:21:31.737Z,53.20
2022-12-25T15:24:00.615Z,53.72
2022-12-25T15:26:33.771Z,54.80
2022-12-25T15:29:00.840Z,54.95
2022-12-25T15:31:32.062Z,54.78
2022-12-25T15:34:03.487Z,54.05
2022-12-25T15:36:30.894Z,53.33
2022-12-25T15:38:59.802Z,50.53
2022-12-25T15:41:53.425Z,54.63
2022-12-25T15:44:21.740Z,59.22
2022-12-25T15:46:49.051Z,54.53
2022-12-25T15:49:17.387Z,55.40
2022-12-25T15:51:45.442Z,51.28
2022-12-25T15:54:13.214Z,54.40
2022-12-25T15:56:51.992Z,52.35
2022-12-25T15:59:21.276Z,56.92
2022-12-25T16:01:55.137Z,50.75
2022-12-25T16:04:24.946Z,51.40
2022-12-25T16:06:53.449Z,52.10
2022-12-25T16:09:21.858Z,49.22
2022-12-25T16:11:50.925Z,51.60
2022-12-25T16:14:19.471Z,52.47
2022-12-25T16:16:46.628Z,52.28
2022-12-25T16:19:13.775Z,56.13
2022-12-25T16:21:48.643Z,57.00
2022-12-25T16:24:15.948Z,62.92
2022-12-25T16:26:43.931Z,63.15
2022-12-25T16:29:11.287Z,110.72
2022-12-25T16:31:39.416Z,72.50
2022-12-25T16:34:08.050Z,65.97
2022-12-25T16:36:36.487Z,66.40
2022-12-25T16:39:04.853Z,60.85
2022-12-25T16:41:32.644Z,59.05
2022-12-25T16:44:04.728Z,59.90
2022-12-25T16:46:31.727Z,44.83
2022-12-25T16:48:58.923Z,59.72
2022-12-25T16:51:25.891Z,56.80
2022-12-25T16:53:53.662Z,54.20
2022-12-25T16:56:21.101Z,61.97
2022-12-25T16:58:48.536Z,65.13
2022-12-25T17:01:19.817Z,61.33
2022-12-25T17:03:47.750Z,64.03
2022-12-25T17:06:25.707Z,58.47
2022-12-25T17:08:57.369Z,59.40
2022-12-25T17:11:29.541Z,58.35
2022-12-25T17:14:03.647Z,55.30
2022-12-25T17:16:38.227Z,55.80
2022-12-25T17:19:13.288Z,48.40
2022-12-25T17:21:40.249Z,50.90
2022-12-25T17:24:07.504Z,53.90
2022-12-25T17:26:34.775Z,59.78
2022-12-25T17:29:02.417Z,65.15
2022-12-25T17:31:29.914Z,82.70
2022-12-25T17:33:57.674Z,72.78
2022-12-25T17:36:24.896Z,67.90
2022-12-25T17:38:51.936Z,64.05
2022-12-25T17:41:20.268Z,57.30
2022-12-25T17:43:48.494Z,53.63
2022-12-25T17:46:22.140Z,55.45
2022-12-25T17:48:51.433Z,66.03
2022-12-25T17:51:22.937Z,53.60
2022-12-25T17:53:57.902Z,58.92
2022-12-25T17:56:26.251Z,57.63
2022-12-25T17:58:57.067Z,48.35
2022-12-25T18:01:26.976Z,57.70
2022-12-25T18:04:01.270Z,53.97
2022-12-25T18:06:29.660Z,53.55
2022-12-25T18:08:58.076Z,43.88
2022-12-25T18:11:37.018Z,42.10
2022-12-25T18:14:06.942Z,46.30
2022-12-25T18:16:40.142Z,50.00
2022-12-25T18:19:09.265Z,53.60
2022-12-25T18:21:36.860Z,70.80
2022-12-25T18:24:08.307Z,73.95
2022-12-25T18:26:35.951Z,52.75
2022-12-25T18:29:03.793Z,46.15
2022-12-25T18:44:38.450Z,45.10
2022-12-25T18:47:07.796Z,40.83
2022-12-25T18:49:36.615Z,40.25
2022-12-25T18:52:49.265Z,39.80
2022-12-25T18:54:55.008Z,38.58
2022-12-25T18:57:22.491Z,40.35
2022-12-25T18:59:49.706Z,41.55
2022-12-25T19:02:17.352Z,42.25
2022-12-25T19:04:44.589Z,41.67
2022-12-25T19:07:14.281Z,42.72
2022-12-25T19:09:44.318Z,41.22
2022-12-25T19:12:11.951Z,41.83
2022-12-25T19:14:48.152Z,44.63
2022-12-25T19:17:17.505Z,44.60
2022-12-25T19:19:44.797Z,39.92
2022-12-25T19:22:12.288Z,40.50
2022-12-25T19:24:40.279Z,38.65
2022-12-25T19:27:08.672Z,41.13
2022-12-25T19:29:36.811Z,39.72
2022-12-25T19:32:04.640Z,40.63
2022-12-25T19:34:31.884Z,37.35
2022-12-25T19:37:03.650Z,38.53
2022-12-25T19:39:30.936Z,40.15
2022-12-25T19:41:59.955Z,38.67
2022-12-25T19:44:27.124Z,36.80
2022-12-25T19:46:54.413Z,41.17
2022-12-25T19:49:21.408Z,43.47
2022-12-25T19:51:49.778Z,40.35
2022-12-25T19:54:20.546Z,41.45
2022-12-25T19:56:49.338Z,40.85
2022-12-25T19:59:17.203Z,43.60
2022-12-25T20:01:44.356Z,44.80
2022-12-25T20:04:11.591Z,43.95
2022-12-25T20:06:42.598Z,46.17
2022-12-25T20:09:20.856Z,42.88
2022-12-25T20:11:48.799Z,44.45
2022-12-25T20:14:17.367Z,46.22
2022-12-25T20:16:45.305Z,45.78
2022-12-25T20:19:14.181Z,45.17
2022-12-25T20:21:42.432Z,47.45
2022-12-25T20:24:11.403Z,49.22
2022-12-25T20:26:40.112Z,46.72
2022-12-25T20:29:07.457Z,49.85
2022-12-25T20:31:35.841Z,47.78
2022-12-25T20:34:09.560Z,49.67
2022-12-25T20:36:38.122Z,50.13
2022-12-25T20:39:10.872Z,49.45
2022-12-25T20:41:39.820Z,46.25
2022-12-25T20:44:10.161Z,47.65
2022-12-25T20:46:38.024Z,46.47
2022-12-25T20:49:06.064Z,59.90
2022-12-25T20:51:33.289Z,52.47
2022-12-25T20:54:01.068Z,49.08
2022-12-25T20:56:28.973Z,45.80
2022-12-25T20:58:59.407Z,47.60
2022-12-25T21:01:31.371Z,47.78
2022-12-25T21:03:59.437Z,50.10
2022-12-25T21:06:28.643Z,50.22
2022-12-25T21:08:57.742Z,48.15
2022-12-25T21:11:24.822Z,47.05
2022-12-25T21:13:52.282Z,46.20
2022-12-25T21:16:23.661Z,46.80
2022-12-25T21:18:53.720Z,47.13
2022-12-25T21:21:22.109Z,45.10
2022-12-25T21:23:49.451Z,47.28
2022-12-25T21:26:19.836Z,46.58
2022-12-25T21:28:53.585Z,47.70
2022-12-25T21:31:21.781Z,46.88
2022-12-25T21:33:51.955Z,47.83
2022-12-25T21:36:34.538Z,48.40
2022-12-25T21:39:06.243Z,49.20
2022-12-25T21:41:36.481Z,49.33
2022-12-25T21:44:04.268Z,46.65
2022-12-25T21:46:32.242Z,51.85
2022-12-25T21:49:00.350Z,53.38
2022-12-25T21:51:52.958Z,51.28
2022-12-25T21:54:22.683Z,50.27
2022-12-25T21:56:50.355Z,49.00
2022-12-25T21:59:21.593Z,48.08
2022-12-25T22:01:50.427Z,51.75
2022-12-25T22:04:21.182Z,55.00
2022-12-25T22:07:07.511Z,49.42
2022-12-25T22:09:34.730Z,49.90
2022-12-25T22:12:21.570Z,54.10
2022-12-25T22:14:54.955Z,48.10
2022-12-25T22:17:48.216Z,48.70
2022-12-25T22:20:19.994Z,49.58
2022-12-25T22:22:47.048Z,48.50
2022-12-25T22:25:17.285Z,49.45
2022-12-25T22:27:46.813Z,44.42
2022-12-25T22:30:18.244Z,44.35
2022-12-25T22:32:46.484Z,43.90
2022-12-25T22:35:14.622Z,45.50
2022-12-25T22:37:43.160Z,44.63
2022-12-25T22:40:14.573Z,44.25
2022-12-25T22:42:42.399Z,44.38
2022-12-25T22:45:10.623Z,44.67
2022-12-25T22:47:37.788Z,44.47
2022-12-25T22:50:06.143Z,43.80
2022-12-25T22:52:33.418Z,45.28
2022-12-25T22:55:00.779Z,44.53
2022-12-25T22:57:28.000Z,45.72
2022-12-25T22:59:55.077Z,43.05
2022-12-25T23:02:22.383Z,44.13
2022-12-25T23:04:49.539Z,42.70
2022-12-25T23:07:17.135Z,46.65
2022-12-25T23:09:45.053Z,46.20
2022-12-25T23:12:32.388Z,45.15
2022-12-25T23:14:59.476Z,42.83
2022-12-25T23:17:45.155Z,42.78
2022-12-25T23:20:33.835Z,41.92
2022-12-25T23:23:20.723Z,44.65
2022-12-25T23:26:06.227Z,43.33
2022-12-25T23:28:51.978Z,44.50
2022-12-25T23:31:22.434Z,41.00
2022-12-25T23:33:49.443Z,43.80
2022-12-25T23:36:16.362Z,44.08
2022-12-25T23:38:43.482Z,40.30
2022-12-25T23:41:10.476Z,42.03
2022-12-25T23:43:37.867Z,41.80
2022-12-25T23:46:05.160Z,41.92
2022-12-25T23:48:32.144Z,43.67
2022-12-25T23:51:07.388Z,41.53
2022-12-25T23:53:35.035Z,43.13
2022-12-25T23:56:02.419Z,43.00
2022-12-25T23:58:30.660Z,43.63
